Time;durP1;ratioP1;P1;durP2;ratioP2;P2;SDS_P1;SDS_P2;PMS_P1;PMS_P2;Temp;Humidity;BMP_temperature;BMP_pressure;BME280_temperature;BME280_humidity;BME280_pressure;Samples;Min_cycle;Max_cycle;Signal;HPM_P1;HPM_P2
2022/02/03 00:01:20;;;;;;;70.18;36.20;;;11.00;99.90;;;;;;5086637;28;20541;-77
2022/02/03 00:03:55;;;;;;;68.40;36.65;;;11.00;99.90;;;;;;5091579;28;20025;-76
2022/02/03 00:06:32;;;;;;;71.10;38.40;;;10.90;99.90;;;;;;5090677;28;20051;-77
2022/02/03 00:21:59;;;;;;;74.07;39.65;;;10.80;99.90;;;;;;5082678;28;20133;-78
2022/02/03 00:25:07;;;;;;;75.13;39.13;;;10.90;99.90;;;;;;5083100;28;20020;-77
2022/02/03 00:27:49;;;;;;;79.82;39.72;;;10.80;99.90;;;;;;5083468;28;20028;-77
2022/02/03 00:30:17;;;;;;;72.13;35.67;;;10.90;99.90;;;;;;5084414;28;20608;-77
2022/02/03 00:33:09;;;;;;;75.85;37.90;;;10.90;99.90;;;;;;5089147;28;20068;-77
2022/02/03 00:35:54;;;;;;;79.87;42.70;;;10.90;99.90;;;;;;5084290;28;20039;-78
2022/02/03 00:49:07;;;;;;;64.30;35.05;;;10.80;99.90;;;;;;5086689;28;20094;-77
2022/02/03 00:51:34;;;;;;;63.58;34.42;;;10.80;99.90;;;;;;5083804;28;20391;-78
2022/02/03 00:54:00;;;;;;;55.47;31.67;;;10.80;99.90;;;;;;5089314;28;20531;-77
2022/02/03 00:56:35;;;;;;;52.88;29.98;;;10.90;99.90;;;;;;5089971;28;20020;-78
2022/02/03 00:59:13;;;;;;;51.88;28.63;;;10.80;99.90;;;;;;5081598;28;20029;-77
2022/02/03 01:01:48;;;;;;;53.60;31.08;;;10.80;99.90;;;;;;5088724;28;20048;-77
2022/02/03 01:04:15;;;;;;;53.28;30.38;;;10.90;99.90;;;;;;5084735;28;20110;-77
2022/02/03 01:06:49;;;;;;;54.00;29.50;;;10.90;99.90;;;;;;5084716;28;20387;-78
2022/02/03 01:09:30;;;;;;;51.83;29.75;;;10.80;99.90;;;;;;5082026;28;20027;-77
2022/02/03 01:20:17;;;;;;;44.65;25.73;;;10.70;99.90;;;;;;5085657;28;20024;-77
2022/02/03 01:52:33;;;;;;;29.17;17.40;;;10.70;99.90;;;;;;5092945;28;20050;-78
2022/02/03 01:55:01;;;;;;;27.30;15.75;;;10.70;99.90;;;;;;5091553;28;20476;-78
2022/02/03 01:57:46;;;;;;;26.15;14.40;;;10.60;99.90;;;;;;5092588;28;20085;-77
2022/02/03 02:00:15;;;;;;;27.48;15.02;;;10.60;99.90;;;;;;5077587;28;20027;-77
2022/02/03 02:02:53;;;;;;;26.38;14.73;;;10.60;99.90;;;;;;5092039;28;20032;-78
2022/02/03 02:05:49;;;;;;;22.30;12.70;;;10.60;99.90;;;;;;5085998;28;20103;-79
2022/02/03 02:08:38;;;;;;;21.58;14.02;;;10.60;99.90;;;;;;5089116;28;20028;-78
2022/02/03 02:11:53;;;;;;;22.08;12.38;;;10.50;99.90;;;;;;5085471;28;20020;-78
2022/02/03 02:17:44;;;;;;;22.33;12.18;;;10.60;99.90;;;;;;5092121;28;20460;-77
2022/02/03 02:43:08;;;;;;;26.73;13.10;;;10.60;99.90;;;;;;5089918;28;20044;-79
2022/02/03 02:45:53;;;;;;;25.25;14.73;;;10.50;99.90;;;;;;5084860;28;20036;-80
2022/02/03 02:48:56;;;;;;;21.45;13.45;;;10.40;99.90;;;;;;5094060;28;20032;-79
2022/02/03 02:51:31;;;;;;;21.75;12.93;;;10.40;99.90;;;;;;5070935;28;20067;-79
2022/02/03 03:30:20;;;;;;;8.63;3.38;;;10.20;99.90;;;;;;5088593;28;20420;-78
2022/02/03 03:38:03;;;;;;;3.65;2.33;;;10.10;99.90;;;;;;5079161;28;20480;-78
2022/02/03 03:40:31;;;;;;;6.38;2.25;;;10.10;99.90;;;;;;5087054;28;20034;-78
2022/02/03 03:43:02;;;;;;;5.93;2.40;;;10.00;99.90;;;;;;5090699;28;20558;-77
2022/02/03 03:45:30;;;;;;;5.93;2.45;;;10.10;99.90;;;;;;5084420;28;20032;-78
2022/02/03 03:48:05;;;;;;;10.60;2.20;;;10.10;99.90;;;;;;5090858;28;20028;-78
2022/02/03 03:50:38;;;;;;;5.60;2.08;;;10.20;99.90;;;;;;5083837;28;20035;-78
2022/02/03 03:53:15;;;;;;;4.30;1.92;;;10.30;99.90;;;;;;5085470;28;20020;-77
2022/02/03 05:05:33;;;;;;;13.70;5.90;;;10.00;99.90;;;;;;5089836;28;20478;-78
2022/02/03 05:44:01;;;;;;;12.15;7.85;;;10.00;99.90;;;;;;5088657;28;20404;-78
2022/02/03 05:46:50;;;;;;;16.00;9.27;;;10.10;99.90;;;;;;5088294;28;20051;-77
2022/02/03 05:52:32;;;;;;;18.10;9.95;;;10.10;99.90;;;;;;5089594;28;20511;-77
2022/02/03 06:06:03;;;;;;;15.52;9.15;;;10.10;99.90;;;;;;5092041;28;20465;-76
2022/02/03 06:08:48;;;;;;;12.63;8.80;;;10.00;99.90;;;;;;5088957;28;20024;-77
2022/02/03 06:14:17;;;;;;;15.20;8.00;;;10.00;99.90;;;;;;5087556;28;20066;-77
2022/02/03 06:17:05;;;;;;;15.45;8.32;;;10.00;99.90;;;;;;5093737;28;20017;-77
2022/02/03 06:22:42;;;;;;;13.63;8.90;;;10.10;99.90;;;;;;5084630;28;20198;-77
2022/02/03 06:27:40;;;;;;;16.95;9.07;;;10.10;99.90;;;;;;5086400;28;20452;-77
2022/02/03 06:30:08;;;;;;;14.63;8.55;;;10.20;99.90;;;;;;5092730;28;20099;-78
2022/02/03 06:32:40;;;;;;;13.70;8.13;;;10.10;99.90;;;;;;5088012;28;20032;-77
2022/02/03 06:35:07;;;;;;;13.27;8.40;;;10.20;99.90;;;;;;5085967;28;20476;-78
2022/02/03 06:37:33;;;;;;;12.80;7.78;;;10.10;99.90;;;;;;5090917;28;20036;-79
2022/02/03 06:39:59;;;;;;;14.20;8.80;;;10.10;99.90;;;;;;5091195;28;20023;-77
2022/02/03 06:42:25;;;;;;;14.05;8.27;;;10.10;99.90;;;;;;5087283;28;20036;-79
2022/02/03 06:45:00;;;;;;;13.60;8.05;;;10.10;99.90;;;;;;5091142;28;20397;-79
2022/02/03 06:52:29;;;;;;;13.20;8.57;;;10.10;99.90;;;;;;5086462;28;20059;-78
2022/02/03 06:55:04;;;;;;;12.88;8.35;;;10.10;99.90;;;;;;5085482;28;20016;-79
2022/02/03 07:00:37;;;;;;;10.75;7.40;;;10.10;99.90;;;;;;5080747;28;20036;-79
2022/02/03 07:03:09;;;;;;;14.45;7.85;;;10.10;99.90;;;;;;5093354;28;20396;-79
2022/02/03 07:05:35;;;;;;;13.68;7.72;;;10.20;99.90;;;;;;5092057;28;20024;-78
2022/02/03 07:08:01;;;;;;;14.52;8.55;;;10.10;99.90;;;;;;5083402;28;20050;-77
2022/02/03 07:10:26;;;;;;;18.33;8.38;;;10.10;99.90;;;;;;5087600;28;20487;-77
2022/02/03 07:12:52;;;;;;;13.77;8.15;;;10.10;99.90;;;;;;5091153;28;20032;-78
2022/02/03 07:15:18;;;;;;;15.98;7.82;;;9.90;99.90;;;;;;5083886;28;20028;-78
2022/02/03 07:17:44;;;;;;;18.23;8.38;;;9.90;99.90;;;;;;5092691;28;20024;-78
2022/02/03 07:20:13;;;;;;;14.35;8.25;;;10.00;99.90;;;;;;5088102;28;20074;-77
2022/02/03 07:22:41;;;;;;;13.55;8.15;;;10.00;99.90;;;;;;5085364;28;20118;-77
2022/02/03 07:25:06;;;;;;;12.32;8.60;;;9.90;99.90;;;;;;5092968;28;20023;-77
2022/02/03 07:27:32;;;;;;;13.63;8.93;;;9.90;99.90;;;;;;5089834;28;20028;-78
2022/02/03 07:29:58;;;;;;;15.77;10.95;;;9.90;99.90;;;;;;5091031;28;20016;-78
2022/02/03 07:32:24;;;;;;;13.40;7.60;;;9.90;99.90;;;;;;5089201;28;20480;-80
2022/02/03 07:34:53;;;;;;;16.17;8.73;;;9.80;99.90;;;;;;5090591;28;20430;-78
2022/02/03 07:37:22;;;;;;;16.08;7.43;;;9.90;99.90;;;;;;5090170;28;20024;-77
2022/02/03 07:39:48;;;;;;;12.70;8.13;;;9.80;99.90;;;;;;5090556;28;20024;-78
2022/02/03 07:42:14;;;;;;;14.30;7.72;;;9.80;99.90;;;;;;5089436;28;20530;-78
2022/02/03 07:44:40;;;;;;;14.88;7.70;;;9.80;99.90;;;;;;5092313;28;20021;-78
2022/02/03 07:47:06;;;;;;;12.82;6.72;;;9.90;99.90;;;;;;5080841;28;20024;-79
2022/02/03 07:49:34;;;;;;;16.90;7.43;;;9.80;99.90;;;;;;5089508;28;20039;-78
2022/02/03 07:52:00;;;;;;;11.60;7.53;;;9.80;99.90;;;;;;5084578;28;20031;-79
2022/02/03 07:54:26;;;;;;;14.05;6.75;;;9.80;99.90;;;;;;5088868;28;20107;-78
2022/02/03 07:56:52;;;;;;;10.05;6.68;;;9.70;99.90;;;;;;5092197;28;20099;-77
2022/02/03 07:59:17;;;;;;;15.02;6.70;;;9.60;99.90;;;;;;5081623;28;20035;-77
2022/02/03 08:01:43;;;;;;;12.50;6.05;;;9.60;99.90;;;;;;5088646;28;20042;-77
2022/02/03 08:04:09;;;;;;;11.32;6.45;;;9.50;99.90;;;;;;5083437;28;20051;-78
2022/02/03 08:06:40;;;;;;;14.95;6.35;;;9.50;99.90;;;;;;5084444;28;20485;-77
2022/02/03 08:09:18;;;;;;;13.80;6.47;;;9.60;99.90;;;;;;5087239;28;20382;-77
2022/02/03 08:11:46;;;;;;;9.30;5.93;;;9.60;99.90;;;;;;5087594;28;20439;-77
2022/02/03 08:14:17;;;;;;;16.02;5.82;;;9.60;99.90;;;;;;5086231;28;20465;-76
2022/02/03 08:16:49;;;;;;;9.43;5.30;;;9.50;99.90;;;;;;5087476;28;20032;-77
2022/02/03 08:21:45;;;;;;;12.75;5.90;;;9.60;99.90;;;;;;5088497;28;20190;-79
2022/02/03 08:24:24;;;;;;;10.50;6.55;;;9.60;99.90;;;;;;5084359;28;20532;-77
2022/02/03 08:29:38;;;;;;;12.65;5.95;;;9.50;99.90;;;;;;5084585;28;20426;-78
2022/02/03 08:32:11;;;;;;;10.60;5.65;;;9.50;99.90;;;;;;5092002;28;20162;-77
2022/02/03 08:37:28;;;;;;;10.40;5.88;;;9.50;99.90;;;;;;5082062;28;20032;-77
2022/02/03 08:40:08;;;;;;;9.65;6.18;;;9.50;99.90;;;;;;5087670;28;20561;-78
2022/02/03 08:42:34;;;;;;;16.83;7.10;;;9.50;99.90;;;;;;5082086;28;20036;-76
2022/02/03 08:44:59;;;;;;;13.57;7.28;;;9.60;99.90;;;;;;5084841;28;20024;-77
2022/02/03 08:47:25;;;;;;;20.20;9.07;;;9.60;99.90;;;;;;5087555;28;20093;-76
2022/02/03 08:49:50;;;;;;;17.05;9.77;;;9.70;99.90;;;;;;5089516;28;20091;-77
2022/02/03 08:52:17;;;;;;;23.20;10.60;;;9.60;99.90;;;;;;5091782;28;20024;-76
2022/02/03 08:54:57;;;;;;;18.35;9.82;;;9.60;99.90;;;;;;5086242;28;20103;-76
2022/02/03 08:57:36;;;;;;;17.85;9.20;;;9.60;99.90;;;;;;5087911;28;20495;-76
2022/02/03 09:00:30;;;;;;;17.73;8.70;;;9.60;99.90;;;;;;5085966;28;20024;-76
2022/02/03 10:00:23;;;;;;;17.83;7.15;;;9.60;99.90;;;;;;5070797;28;20127;-77
2022/02/03 10:03:00;;;;;;;16.05;7.80;;;9.50;99.90;;;;;;5061097;28;20707;-77
2022/02/03 10:07:59;;;;;;;19.55;9.27;;;9.60;99.90;;;;;;5089299;28;20540;-76
2022/02/03 10:10:28;;;;;;;18.67;11.48;;;9.70;99.90;;;;;;5089299;28;20107;-77
2022/02/03 10:12:54;;;;;;;20.65;12.27;;;9.70;99.90;;;;;;5094636;28;20036;-76
2022/02/03 10:15:21;;;;;;;28.45;13.05;;;9.70;99.90;;;;;;5085997;28;20126;-77
2022/02/03 10:17:49;;;;;;;25.90;13.98;;;9.70;99.90;;;;;;5088413;28;20477;-76
2022/02/03 10:20:19;;;;;;;29.30;14.38;;;9.70;99.90;;;;;;5087037;28;20024;-76
2022/02/03 10:22:58;;;;;;;18.50;11.15;;;9.70;99.90;;;;;;5089348;28;20047;-76
2022/02/03 10:25:27;;;;;;;18.65;10.65;;;9.70;99.90;;;;;;5087174;28;20023;-76
2022/02/03 10:28:04;;;;;;;20.77;10.93;;;9.70;99.90;;;;;;5085245;28;21081;-76
2022/02/03 10:33:09;;;;;;;21.13;10.68;;;9.70;99.90;;;;;;5092719;28;20032;-76
2022/02/03 10:39:02;;;;;;;19.73;10.20;;;9.90;99.90;;;;;;5090675;28;20115;-76
2022/02/03 11:12:52;;;;;;;15.05;6.00;;;9.80;99.90;;;;;;5087381;28;20116;-78
2022/02/03 11:15:19;;;;;;;13.82;5.47;;;9.90;99.90;;;;;;5092408;28;20020;-79
2022/02/03 11:17:48;;;;;;;13.38;5.53;;;9.90;99.90;;;;;;5089155;28;20111;-77
2022/02/03 11:20:16;;;;;;;12.23;4.80;;;9.90;99.90;;;;;;5084242;28;20024;-77
2022/02/03 11:22:56;;;;;;;15.25;6.88;;;9.80;99.90;;;;;;5089896;28;20028;-78
2022/02/03 11:25:52;;;;;;;11.20;5.50;;;9.80;99.90;;;;;;5085293;28;20419;-78
2022/02/03 11:37:08;;;;;;;10.90;5.47;;;9.70;99.90;;;;;;5088143;28;20056;-79
2022/02/03 12:01:42;;;;;;;14.63;5.22;;;9.90;99.90;;;;;;5088592;28;20036;-79
2022/02/03 12:04:39;;;;;;;10.85;4.50;;;10.00;99.90;;;;;;5084491;28;20021;-78
2022/02/03 12:07:26;;;;;;;12.32;5.30;;;9.90;99.90;;;;;;5089754;28;20480;-79
2022/02/03 12:16:05;;;;;;;13.43;5.70;;;10.00;99.90;;;;;;5085708;28;20068;-78
2022/02/03 12:25:04;;;;;;;13.82;5.53;;;10.00;99.90;;;;;;5079745;28;20028;-78
2022/02/03 12:28:02;;;;;;;9.95;5.28;;;10.10;99.90;;;;;;5086819;28;20044;-78
2022/02/03 12:30:24;;;;;;;19.52;6.80;;;10.20;99.90;;;;;;5083692;28;20032;-77
2022/02/03 12:38:29;;;;;;;17.25;6.70;;;10.10;99.90;;;;;;5081203;28;20120;-78
2022/02/03 12:41:12;;;;;;;13.27;6.70;;;10.10;99.90;;;;;;5088592;28;20111;-79
2022/02/03 12:43:41;;;;;;;;;;;10.20;99.90;;;;;;5085235;28;20476;-76
2022/02/03 12:46:07;;;;;;;14.25;7.15;;;10.20;99.90;;;;;;5086119;28;19954;-78
2022/02/03 12:48:35;;;;;;;14.07;7.00;;;10.20;99.90;;;;;;5086534;28;20037;-78
2022/02/03 12:51:02;;;;;;;13.93;6.88;;;10.20;99.90;;;;;;5084648;28;20024;-77
2022/02/03 12:53:33;;;;;;;13.35;6.57;;;10.20;99.90;;;;;;5088049;28;20034;-78
2022/02/03 12:56:02;;;;;;;13.23;6.72;;;10.20;99.90;;;;;;5084725;28;20103;-78
2022/02/03 12:58:35;;;;;;;14.05;6.45;;;10.20;99.90;;;;;;5090665;28;20518;-78
2022/02/03 13:01:11;;;;;;;12.05;6.03;;;10.10;99.90;;;;;;5084186;28;20043;-78
2022/02/03 13:03:41;;;;;;;13.65;7.10;;;10.10;99.90;;;;;;5084954;28;20036;-78
2022/02/03 13:06:11;;;;;;;17.25;7.40;;;10.10;99.90;;;;;;5082181;28;20448;-78
2022/02/03 13:08:43;;;;;;;14.18;7.03;;;10.00;99.90;;;;;;5086581;28;20030;-78
2022/02/03 13:11:22;;;;;;;10.23;6.43;;;10.00;99.90;;;;;;5082699;28;20066;-78
2022/02/03 13:16:25;;;;;;;18.08;7.32;;;10.10;99.90;;;;;;5093069;28;20028;-78
2022/02/03 13:19:31;;;;;;;11.35;6.85;;;10.10;99.90;;;;;;5092358;28;20034;-79
2022/02/03 13:26:49;;;;;;;20.63;7.57;;;10.20;99.90;;;;;;5086334;28;20033;-79
2022/02/03 13:29:44;;;;;;;13.57;7.32;;;10.20;99.90;;;;;;5090502;28;20065;-79
2022/02/03 13:32:14;;;;;;;12.45;6.65;;;10.30;99.90;;;;;;5086413;28;20032;-79
2022/02/03 13:35:22;;;;;;;13.15;7.07;;;10.30;99.90;;;;;;5087199;28;20017;-79
2022/02/03 13:37:44;;;;;;;16.25;7.60;;;10.40;99.90;;;;;;5088269;28;20032;-79
2022/02/03 13:40:15;;;;;;;13.68;7.03;;;10.40;99.90;;;;;;5091945;28;20028;-79
2022/02/03 13:42:48;;;;;;;14.95;7.07;;;10.40;99.90;;;;;;5091132;28;20125;-79
2022/02/03 13:45:15;;;;;;;13.75;6.53;;;10.30;99.90;;;;;;5092154;28;20388;-79
2022/02/03 13:47:42;;;;;;;12.95;7.18;;;10.40;99.90;;;;;;5087511;28;20024;-79
2022/02/03 13:50:12;;;;;;;15.18;7.38;;;10.30;99.90;;;;;;5085677;28;20027;-79
2022/02/03 14:28:22;;;;;;;15.70;8.38;;;9.90;99.90;;;;;;5087578;28;20565;-77
2022/02/03 14:30:53;;;;;;;16.70;9.18;;;9.90;99.90;;;;;;5090075;28;20024;-78
2022/02/03 14:33:27;;;;;;;18.80;9.05;;;10.00;99.90;;;;;;5084136;28;20395;-76
2022/02/03 14:35:58;;;;;;;19.10;8.90;;;9.90;99.90;;;;;;5089470;28;20024;-77
2022/02/03 14:38:29;;;;;;;18.77;8.55;;;9.90;99.90;;;;;;5089838;28;20024;-77
2022/02/03 14:41:08;;;;;;;15.73;9.10;;;9.80;99.90;;;;;;5085870;28;20494;-77
2022/02/03 14:43:33;;;;;;;17.92;8.70;;;9.80;99.90;;;;;;5086562;28;20470;-77
2022/02/03 14:46:01;;;;;;;16.42;9.38;;;9.80;99.90;;;;;;5084529;28;20043;-76
2022/02/03 14:48:27;;;;;;;18.90;9.65;;;9.80;99.90;;;;;;5088946;28;20028;-78
2022/02/03 14:50:56;;;;;;;13.85;8.75;;;9.80;99.90;;;;;;5081533;28;20036;-76
2022/02/03 14:53:32;;;;;;;18.95;9.65;;;9.80;99.90;;;;;;5086295;28;20050;-76
2022/02/03 14:58:43;;;;;;;21.17;10.45;;;9.90;99.90;;;;;;5085383;28;20027;-77
2022/02/03 15:01:12;;;;;;;20.73;10.70;;;9.90;99.90;;;;;;5092225;28;20036;-77
2022/02/03 15:03:38;;;;;;;19.98;10.10;;;9.90;99.90;;;;;;5088179;28;20026;-76
2022/02/03 15:06:09;;;;;;;16.98;10.23;;;9.90;99.90;;;;;;5085720;28;20099;-76
2022/02/03 15:11:16;;;;;;;22.85;10.40;;;9.90;99.90;;;;;;5081821;28;20060;-76
2022/02/03 15:13:43;;;;;;;16.67;9.55;;;9.80;99.90;;;;;;5086046;28;20028;-76
2022/02/03 15:16:10;;;;;;;17.55;10.38;;;9.90;99.90;;;;;;5087605;28;20074;-76
2022/02/03 15:18:37;;;;;;;15.27;9.80;;;10.00;99.90;;;;;;5082919;28;20576;-75
2022/02/03 15:21:04;;;;;;;17.73;10.23;;;9.90;99.90;;;;;;5092435;28;20058;-76
2022/02/03 15:23:30;;;;;;;20.42;10.57;;;9.80;99.90;;;;;;5088091;28;20074;-76
2022/02/03 15:25:56;;;;;;;19.38;10.43;;;9.90;99.90;;;;;;5083597;28;20605;-75
2022/02/03 15:28:22;;;;;;;19.52;9.85;;;10.00;99.90;;;;;;5088455;28;20028;-75
2022/02/03 15:30:48;;;;;;;16.92;10.95;;;10.00;99.90;;;;;;5093880;28;20460;-75
2022/02/03 15:33:15;;;;;;;19.75;9.90;;;9.90;99.90;;;;;;5083991;28;20023;-76
2022/02/03 15:35:48;;;;;;;20.25;9.93;;;9.90;99.90;;;;;;5087236;28;20472;-76
2022/02/03 15:38:17;;;;;;;21.05;11.00;;;10.00;99.90;;;;;;5086531;28;20034;-75
2022/02/03 15:40:44;;;;;;;16.88;11.02;;;9.90;99.90;;;;;;5090024;28;20035;-75
2022/02/03 15:43:23;;;;;;;15.57;9.07;;;9.90;99.90;;;;;;5086023;28;20032;-75
2022/02/03 15:45:53;;;;;;;17.98;10.77;;;9.90;99.90;;;;;;5087208;28;20103;-75
2022/02/03 16:04:29;;;;;;;19.08;9.07;;;10.00;99.90;;;;;;5090714;28;20028;-79
2022/02/03 16:17:46;;;;;;;17.15;9.10;;;9.80;99.90;;;;;;5088102;28;21159;-76
2022/02/03 16:20:19;;;;;;;18.98;9.27;;;9.80;99.90;;;;;;5083258;28;20032;-76
2022/02/03 16:23:16;;;;;;;16.55;9.50;;;9.80;99.90;;;;;;5091592;28;20040;-76
2022/02/03 16:52:42;;;;;;;17.08;10.02;;;9.60;99.90;;;;;;5091495;28;20039;-75
2022/02/03 16:55:13;;;;;;;18.30;10.93;;;9.60;99.90;;;;;;5088453;28;20035;-76
2022/02/03 16:57:40;;;;;;;21.52;11.63;;;9.70;99.90;;;;;;5087862;28;20469;-74
2022/02/03 17:00:11;;;;;;;17.98;11.52;;;9.60;99.90;;;;;;5087778;28;20469;-76
2022/02/03 17:02:37;;;;;;;23.35;11.93;;;9.60;99.90;;;;;;5086317;28;20106;-76
2022/02/03 17:05:03;;;;;;;18.73;12.45;;;9.60;99.90;;;;;;5088314;28;20020;-76
2022/02/03 17:07:29;;;;;;;19.67;12.23;;;9.60;99.90;;;;;;5091363;28;20070;-76
2022/02/03 17:09:56;;;;;;;22.88;12.10;;;9.60;99.90;;;;;;5090452;28;20048;-76
2022/02/03 17:12:22;;;;;;;22.50;12.73;;;9.60;99.90;;;;;;5095388;28;20035;-76
2022/02/03 17:14:48;;;;;;;23.58;13.27;;;9.60;99.90;;;;;;5088041;28;20043;-75
2022/02/03 17:17:20;;;;;;;20.33;12.68;;;9.60;99.90;;;;;;5086720;28;20028;-79
2022/02/03 17:19:49;;;;;;;19.63;13.20;;;9.50;99.90;;;;;;5092047;28;20032;-77
2022/02/03 17:22:18;;;;;;;20.33;12.80;;;9.60;99.90;;;;;;5086532;28;20024;-76
2022/02/03 17:25:01;;;;;;;20.98;12.98;;;9.60;99.90;;;;;;5092446;28;20107;-75
2022/02/03 17:30:18;;;;;;;20.67;12.55;;;9.50;99.90;;;;;;5090448;28;20024;-77
2022/02/03 18:11:04;;;;;;;38.50;19.65;;;9.40;99.90;;;;;;5090823;28;20548;-76
2022/02/03 18:35:18;;;;;;;36.78;21.58;;;9.40;99.90;;;;;;5087106;28;20039;-75
2022/02/03 18:52:42;;;;;;;33.83;22.75;;;9.60;99.90;;;;;;5070355;28;20036;-74
2022/02/03 18:54:56;;;;;;;38.10;20.20;;;9.60;99.90;;;;;;5078697;28;20032;-75
2022/02/03 18:57:36;;;;;;;34.45;21.75;;;9.60;99.90;;;;;;5088967;28;20032;-76
2022/02/03 19:22:07;;;;;;;35.38;22.90;;;9.50;99.90;;;;;;5085028;28;20055;-76
2022/02/03 19:24:44;;;;;;;34.83;21.25;;;9.60;99.90;;;;;;5088733;28;20085;-75
2022/02/03 20:05:20;;;;;;;38.63;25.23;;;9.60;99.90;;;;;;5084123;28;20522;-75
2022/02/03 20:08:02;;;;;;;38.03;26.52;;;9.50;99.90;;;;;;5089155;28;20028;-75
2022/02/03 20:10:40;;;;;;;41.85;28.58;;;9.50;99.90;;;;;;5086351;28;20035;-76
2022/02/03 20:13:05;;;;;;;49.92;29.52;;;9.50;99.90;;;;;;5087135;28;20028;-76
2022/02/03 20:15:37;;;;;;;44.95;29.63;;;9.50;99.90;;;;;;5086013;28;20407;-75
2022/02/03 20:18:04;;;;;;;47.70;29.48;;;9.50;99.90;;;;;;5086886;28;20024;-75
2022/02/03 20:20:31;;;;;;;45.92;28.65;;;9.50;99.90;;;;;;5082501;28;20078;-75
2022/02/03 20:22:57;;;;;;;43.40;27.60;;;9.50;99.90;;;;;;5089824;28;20039;-75
2022/02/03 20:25:23;;;;;;;44.17;27.75;;;9.40;99.90;;;;;;5083383;28;20029;-76
2022/02/03 20:27:49;;;;;;;41.45;25.67;;;9.40;99.90;;;;;;5090685;28;20028;-75
2022/02/03 20:30:15;;;;;;;42.55;26.50;;;9.40;99.90;;;;;;5080738;28;20055;-75
2022/02/03 20:32:41;;;;;;;50.95;32.47;;;9.40;99.90;;;;;;5089706;28;20058;-76
2022/02/03 20:35:08;;;;;;;43.28;28.30;;;9.40;99.90;;;;;;5082432;28;20063;-76
2022/02/03 20:37:35;;;;;;;41.15;24.30;;;9.40;99.90;;;;;;5087327;28;20067;-76
2022/02/03 20:40:01;;;;;;;39.22;24.17;;;9.30;99.90;;;;;;5089798;28;20078;-75
2022/02/03 20:42:26;;;;;;;37.38;25.35;;;9.30;99.90;;;;;;5087717;28;20484;-76
2022/02/03 20:44:52;;;;;;;44.33;25.90;;;9.30;99.90;;;;;;5090182;28;20464;-76
2022/02/03 20:47:18;;;;;;;37.25;24.90;;;9.30;99.90;;;;;;5089976;28;20032;-75
2022/02/03 20:49:44;;;;;;;39.28;24.05;;;9.30;99.90;;;;;;5090678;28;20081;-75
2022/02/03 20:52:10;;;;;;;42.53;26.25;;;9.30;99.90;;;;;;5090908;28;20107;-75
2022/02/03 20:54:36;;;;;;;43.70;23.55;;;9.30;99.90;;;;;;5089948;28;20460;-76
2022/02/03 20:57:02;;;;;;;39.83;25.15;;;9.20;99.90;;;;;;5083865;28;20481;-75
2022/02/03 20:59:41;;;;;;;45.70;28.63;;;9.30;99.90;;;;;;5088724;28;20032;-76
2022/02/03 21:02:11;;;;;;;49.70;30.17;;;9.30;99.90;;;;;;5083105;28;20123;-76
2022/02/03 21:07:20;;;;;;;43.50;26.42;;;9.30;99.90;;;;;;5079987;28;20051;-75
2022/02/03 21:09:48;;;;;;;53.65;32.08;;;9.20;99.90;;;;;;5085540;28;20065;-75
2022/02/03 21:12:14;;;;;;;60.08;36.72;;;9.30;99.90;;;;;;5089326;28;20108;-75
2022/02/03 21:14:40;;;;;;;62.03;37.15;;;9.30;99.90;;;;;;5093400;28;20183;-75
2022/02/03 21:17:06;;;;;;;57.55;34.40;;;9.30;99.90;;;;;;5086339;28;20083;-75
2022/02/03 21:19:32;;;;;;;50.22;32.17;;;9.30;99.90;;;;;;5082309;28;20031;-76
2022/02/03 21:21:58;;;;;;;47.03;30.48;;;9.20;99.90;;;;;;5080808;28;20395;-75
2022/02/03 21:24:23;;;;;;;50.65;33.08;;;9.30;99.90;;;;;;5085919;28;20488;-76
2022/02/03 21:26:52;;;;;;;49.15;29.35;;;9.30;99.90;;;;;;5084646;28;20114;-77
2022/02/03 21:29:18;;;;;;;57.13;33.53;;;9.20;99.90;;;;;;5089963;28;20043;-76
2022/02/03 21:31:43;;;;;;;48.35;28.98;;;9.20;99.90;;;;;;5086821;28;20477;-76
2022/02/03 21:34:14;;;;;;;47.97;29.05;;;9.10;99.90;;;;;;5090225;28;20484;-77
2022/02/03 21:36:42;;;;;;;49.40;28.77;;;9.10;99.90;;;;;;5087556;28;20021;-76
2022/02/03 21:39:08;;;;;;;49.35;27.15;;;9.20;99.90;;;;;;5093107;28;20035;-78
2022/02/03 21:41:33;;;;;;;46.97;29.27;;;9.20;99.90;;;;;;5092567;28;20035;-76
2022/02/03 21:43:59;;;;;;;44.83;27.75;;;9.30;99.90;;;;;;5093242;28;20092;-75
2022/02/03 21:46:25;;;;;;;47.22;27.40;;;9.30;99.90;;;;;;5087039;28;20028;-77
2022/02/03 21:48:50;;;;;;;50.92;28.98;;;9.20;99.90;;;;;;5088681;28;20032;-77
2022/02/03 21:51:25;;;;;;;50.03;28.48;;;9.30;99.90;;;;;;5087702;28;20021;-75
2022/02/03 21:53:51;;;;;;;47.35;27.92;;;9.30;99.90;;;;;;5094322;28;20028;-77
2022/02/03 21:56:19;;;;;;;44.08;25.13;;;9.40;99.90;;;;;;5089837;28;20414;-76
2022/02/03 21:58:45;;;;;;;42.30;24.98;;;9.30;99.90;;;;;;5091983;28;20032;-78
2022/02/03 22:01:10;;;;;;;44.63;26.88;;;9.40;99.90;;;;;;5095079;28;20028;-76
2022/02/03 22:03:36;;;;;;;46.78;27.23;;;9.30;99.90;;;;;;5083987;28;20041;-77
2022/02/03 22:06:02;;;;;;;48.78;28.27;;;9.40;99.90;;;;;;5091103;28;20043;-75
2022/02/03 22:08:28;;;;;;;46.40;26.92;;;9.30;99.90;;;;;;5092878;28;20396;-77
2022/02/03 22:10:56;;;;;;;41.88;25.65;;;9.30;99.90;;;;;;5090219;28;20478;-77
2022/02/03 22:13:32;;;;;;;48.70;29.63;;;9.20;99.90;;;;;;5093082;28;20111;-76
2022/02/03 22:15:58;;;;;;;51.17;29.15;;;9.30;99.90;;;;;;5088349;28;20480;-76
2022/02/03 22:18:23;;;;;;;48.15;30.60;;;9.20;99.90;;;;;;5088755;28;20021;-76
2022/02/03 22:20:56;;;;;;;45.80;25.85;;;9.20;99.90;;;;;;5090649;28;20028;-76
2022/02/03 22:29:19;;;;;;;42.33;25.35;;;9.20;99.90;;;;;;5083006;28;20066;-76
2022/02/03 22:47:54;;;;;;;41.45;24.98;;;9.20;99.90;;;;;;5092133;28;20438;-77
2022/02/03 22:50:20;;;;;;;45.17;26.33;;;9.30;99.90;;;;;;5088973;28;20020;-76
2022/02/03 22:52:45;;;;;;;38.85;25.42;;;9.20;99.90;;;;;;5090508;28;20020;-76
2022/02/03 22:55:13;;;;;;;46.53;25.80;;;9.20;99.90;;;;;;5087413;28;20028;-76
2022/02/03 22:57:41;;;;;;;42.05;24.65;;;9.30;99.90;;;;;;5090270;28;20118;-76
2022/02/03 23:00:20;;;;;;;42.15;24.10;;;9.30;99.90;;;;;;5084786;28;20028;-77
2022/02/03 23:02:45;;;;;;;41.50;26.65;;;9.30;99.90;;;;;;5092986;28;20032;-77
2022/02/03 23:05:16;;;;;;;40.08;23.88;;;9.30;99.90;;;;;;5089938;28;20162;-76
2022/02/03 23:10:38;;;;;;;39.58;25.13;;;9.40;99.90;;;;;;5089453;28;20056;-76
2022/02/03 23:13:23;;;;;;;43.50;26.05;;;9.40;99.90;;;;;;5086151;28;20024;-76
2022/02/03 23:16:06;;;;;;;42.38;25.15;;;9.30;99.90;;;;;;5090518;28;20111;-76
2022/02/03 23:23:49;;;;;;;39.53;23.38;;;9.50;99.90;;;;;;5089284;28;20024;-76
2022/02/03 23:26:17;;;;;;;39.50;23.02;;;9.40;99.90;;;;;;5086191;28;20027;-76
2022/02/03 23:28:43;;;;;;;39.65;22.73;;;9.30;99.90;;;;;;5091532;28;20118;-76
2022/02/03 23:31:08;;;;;;;41.35;24.35;;;9.30;99.90;;;;;;5091636;28;20104;-76
2022/02/03 23:33:34;;;;;;;40.67;23.73;;;9.20;99.90;;;;;;5081802;28;20130;-76
2022/02/03 23:36:00;;;;;;;45.75;26.10;;;9.30;99.90;;;;;;5091154;28;20027;-76
